Time;durP1;ratioP1;P1;durP2;ratioP2;P2;SDS_P1;SDS_P2;PMS_P1;PMS_P2;Temp;Humidity;BMP_temperature;BMP_pressure;BME280_temperature;BME280_humidity;BME280_pressure;Samples;Min_cycle;Max_cycle;Signal;HPM_P1;HPM_P2
2023/09/28 00:02:22;;;;;;;23.83;22.53;;;;;;;;;;5017217;28;20464;-85
2023/09/28 00:04:48;;;;;;;23.97;22.67;;;;;;;;;;5017536;28;20949;-86
2023/09/28 00:07:17;;;;;;;24.23;22.93;;;;;;;;;;5017182;28;20480;-85
2023/09/28 00:09:43;;;;;;;23.30;21.93;;;;;;;;;;5017244;28;20464;-86
2023/09/28 00:12:10;;;;;;;24.20;22.90;;;;;;;;;;5017125;28;20867;-86
2023/09/28 00:14:36;;;;;;;24.07;22.73;;;;;;;;;;5017844;28;20431;-86
2023/09/28 00:17:04;;;;;;;24.43;22.97;;;;;;;;;;5018667;28;20509;-85
2023/09/28 00:19:30;;;;;;;23.70;22.40;;;;;;;;;;5018456;28;20486;-86
2023/09/28 00:21:57;;;;;;;25.00;23.37;;;;;;;;;;5018837;28;20428;-86
2023/09/28 00:24:25;;;;;;;24.73;23.13;;;;;;;;;;5017697;28;20427;-84
2023/09/28 00:26:52;;;;;;;23.60;22.40;;;;;;;;;;5017205;28;20515;-85
2023/09/28 00:29:18;;;;;;;24.33;22.70;;;;;;;;;;5017163;28;20464;-84
2023/09/28 00:31:45;;;;;;;23.77;22.37;;;;;;;;;;5016729;28;20452;-85
2023/09/28 00:34:12;;;;;;;22.57;21.37;;;;;;;;;;5016736;28;20460;-84
2023/09/28 00:36:39;;;;;;;23.90;22.60;;;;;;;;;;5027019;28;20451;-85
2023/09/28 00:39:05;;;;;;;23.80;22.50;;;;;;;;;;5017205;28;20780;-86
2023/09/28 00:41:34;;;;;;;24.47;23.10;;;;;;;;;;5017735;28;20444;-84
2023/09/28 00:44:00;;;;;;;23.83;22.47;;;;;;;;;;5016940;28;20469;-84
2023/09/28 00:46:30;;;;;;;24.10;22.70;;;;;;;;;;5016760;28;20441;-86
2023/09/28 00:48:58;;;;;;;24.00;22.70;;;;;;;;;;5017629;28;20428;-83
2023/09/28 00:51:27;;;;;;;23.87;22.47;;;;;;;;;;5022087;28;20476;-85
2023/09/28 00:53:55;;;;;;;25.43;23.50;;;;;;;;;;5017407;28;20961;-86
2023/09/28 00:56:23;;;;;;;24.23;22.60;;;;;;;;;;5017376;28;21163;-84
2023/09/28 00:58:52;;;;;;;23.07;21.80;;;;;;;;;;5017490;28;20483;-85
2023/09/28 01:01:19;;;;;;;24.50;23.20;;;;;;;;;;5016391;28;20455;-86
2023/09/28 01:03:46;;;;;;;24.10;22.70;;;;;;;;;;5016944;28;20472;-86
2023/09/28 01:06:13;;;;;;;23.90;22.60;;;;;;;;;;5015698;28;20498;-86
2023/09/28 01:08:45;;;;;;;24.40;22.90;;;;;;;;;;5016691;28;20423;-85
2023/09/28 01:11:12;;;;;;;24.60;23.20;;;;;;;;;;5019978;28;20448;-86
2023/09/28 01:13:39;;;;;;;25.27;23.67;;;;;;;;;;5016530;28;20462;-86
2023/09/28 01:16:07;;;;;;;25.50;23.77;;;;;;;;;;5016392;28;20480;-84
2023/09/28 01:18:33;;;;;;;25.07;23.57;;;;;;;;;;5016734;28;20479;-84
2023/09/28 01:21:01;;;;;;;24.30;23.00;;;;;;;;;;5017138;28;20476;-84
2023/09/28 01:23:28;;;;;;;23.80;22.60;;;;;;;;;;5016617;28;20484;-84
2023/09/28 01:25:56;;;;;;;24.90;23.43;;;;;;;;;;5016010;28;20971;-84
2023/09/28 01:28:22;;;;;;;24.53;23.10;;;;;;;;;;5016215;28;20455;-87
2023/09/28 01:30:49;;;;;;;24.00;22.60;;;;;;;;;;5016701;28;20452;-84
2023/09/28 01:33:15;;;;;;;25.17;23.80;;;;;;;;;;5017042;28;20476;-86
2023/09/28 01:35:43;;;;;;;24.90;23.53;;;;;;;;;;5015845;28;20485;-86
2023/09/28 01:38:13;;;;;;;24.63;23.20;;;;;;;;;;5017107;28;20449;-86
2023/09/28 01:40:41;;;;;;;24.80;23.30;;;;;;;;;;5016310;28;20411;-86
2023/09/28 01:43:07;;;;;;;24.20;22.90;;;;;;;;;;5016487;28;20453;-84
2023/09/28 01:45:34;;;;;;;25.50;24.00;;;;;;;;;;5016257;28;20532;-86
2023/09/28 01:48:01;;;;;;;25.57;24.07;;;;;;;;;;5016113;28;20449;-86
2023/09/28 01:50:34;;;;;;;24.50;23.20;;;;;;;;;;5015744;28;20452;-85
2023/09/28 01:53:02;;;;;;;24.97;23.57;;;;;;;;;;5016114;28;20476;-86
2023/09/28 01:55:28;;;;;;;25.37;23.97;;;;;;;;;;5016050;28;20492;-84
2023/09/28 01:57:56;;;;;;;24.70;23.40;;;;;;;;;;5015659;28;20783;-84
2023/09/28 02:00:24;;;;;;;25.40;23.80;;;;;;;;;;5016419;28;20434;-84
2023/09/28 02:02:53;;;;;;;25.60;24.00;;;;;;;;;;5016996;28;20460;-84
2023/09/28 02:05:20;;;;;;;24.10;22.80;;;;;;;;;;5020598;28;20415;-84
2023/09/28 02:07:46;;;;;;;24.27;22.90;;;;;;;;;;5019281;28;20465;-84
2023/09/28 02:10:14;;;;;;;25.53;24.13;;;;;;;;;;5019254;28;20458;-84
2023/09/28 02:12:41;;;;;;;25.73;24.10;;;;;;;;;;5019235;28;20522;-86
2023/09/28 02:15:10;;;;;;;25.90;24.47;;;;;;;;;;5019388;28;21170;-86
2023/09/28 02:17:36;;;;;;;24.67;23.37;;;;;;;;;;5018885;28;20473;-84
2023/09/28 02:20:08;;;;;;;24.80;23.30;;;;;;;;;;5019636;28;20486;-85
2023/09/28 02:22:34;;;;;;;25.57;24.17;;;;;;;;;;5019246;28;20511;-86
2023/09/28 02:25:02;;;;;;;24.47;23.17;;;;;;;;;;5019687;28;20425;-86
2023/09/28 02:27:28;;;;;;;24.83;23.23;;;;;;;;;;5019213;28;20431;-85
2023/09/28 02:29:55;;;;;;;25.60;23.37;;;;;;;;;;5010238;28;20439;-84
2023/09/28 02:32:23;;;;;;;24.70;23.20;;;;;;;;;;5005703;28;20458;-86
2023/09/28 02:34:50;;;;;;;25.23;23.73;;;;;;;;;;5010497;28;20503;-85
2023/09/28 02:37:16;;;;;;;25.57;24.03;;;;;;;;;;5013966;28;20492;-86
2023/09/28 02:39:44;;;;;;;24.90;22.90;;;;;;;;;;5019916;28;20427;-86
2023/09/28 02:42:10;;;;;;;25.27;23.67;;;;;;;;;;5019117;28;20870;-85
2023/09/28 02:44:37;;;;;;;24.40;23.00;;;;;;;;;;5018774;28;20423;-84
2023/09/28 02:47:05;;;;;;;25.20;23.80;;;;;;;;;;5018277;28;20419;-86
2023/09/28 02:49:34;;;;;;;25.33;23.83;;;;;;;;;;5018729;28;20498;-84
2023/09/28 02:52:01;;;;;;;23.40;22.20;;;;;;;;;;5018790;28;20423;-85
2023/09/28 02:54:29;;;;;;;24.87;23.47;;;;;;;;;;5019347;28;20419;-86
2023/09/28 02:56:55;;;;;;;23.90;22.60;;;;;;;;;;5017943;28;20860;-86
2023/09/28 02:59:23;;;;;;;25.43;23.80;;;;;;;;;;5019069;28;20415;-86
2023/09/28 03:01:51;;;;;;;24.53;23.13;;;;;;;;;;5019532;28;21238;-84
2023/09/28 03:04:19;;;;;;;24.90;23.40;;;;;;;;;;5018645;28;20978;-86
2023/09/28 03:06:46;;;;;;;25.50;24.00;;;;;;;;;;5018391;28;20434;-84
2023/09/28 03:09:13;;;;;;;24.00;22.57;;;;;;;;;;5018736;28;20764;-84
2023/09/28 03:11:41;;;;;;;25.17;23.37;;;;;;;;;;5018413;28;21155;-86
2023/09/28 03:14:07;;;;;;;25.97;24.20;;;;;;;;;;5018029;28;20464;-85
2023/09/28 03:16:34;;;;;;;25.77;24.23;;;;;;;;;;5017672;28;20814;-84
2023/09/28 03:19:00;;;;;;;24.10;22.80;;;;;;;;;;5018642;28;20423;-84
2023/09/28 03:21:29;;;;;;;25.90;24.30;;;;;;;;;;5018594;28;20444;-85
2023/09/28 03:23:59;;;;;;;24.63;23.23;;;;;;;;;;5018137;28;20463;-84
2023/09/28 03:26:27;;;;;;;24.80;23.23;;;;;;;;;;5018238;28;20450;-86
2023/09/28 03:28:54;;;;;;;24.50;23.00;;;;;;;;;;5018625;28;20459;-85
2023/09/28 03:31:20;;;;;;;26.03;24.43;;;;;;;;;;5018298;28;20460;-85
2023/09/28 03:33:47;;;;;;;24.67;23.27;;;;;;;;;;5203772;22;20426;-86
2023/09/28 03:36:13;;;;;;;25.40;24.00;;;;;;;;;;4997930;28;20452;-86
2023/09/28 03:38:40;;;;;;;25.87;24.40;;;;;;;;;;4997895;28;20454;-87
2023/09/28 03:41:09;;;;;;;25.60;24.13;;;;;;;;;;4997730;28;20953;-85
2023/09/28 03:43:36;;;;;;;26.63;25.13;;;;;;;;;;4998472;28;20444;-86
2023/09/28 03:46:03;;;;;;;25.23;23.80;;;;;;;;;;4997306;28;20926;-87
2023/09/28 03:48:30;;;;;;;26.23;24.63;;;;;;;;;;4998013;28;20455;-86
2023/09/28 03:50:57;;;;;;;25.90;24.40;;;;;;;;;;4998045;28;20434;-87
2023/09/28 03:53:24;;;;;;;26.27;24.63;;;;;;;;;;4997821;28;20459;-87
2023/09/28 03:55:51;;;;;;;25.60;23.87;;;;;;;;;;4996381;28;20485;-85
2023/09/28 03:58:20;;;;;;;25.23;23.80;;;;;;;;;;4998069;28;20423;-87
2023/09/28 04:00:48;;;;;;;24.40;23.10;;;;;;;;;;4997246;28;20504;-85
2023/09/28 04:03:15;;;;;;;24.63;23.23;;;;;;;;;;4997246;28;20446;-87
2023/09/28 04:05:43;;;;;;;25.20;23.63;;;;;;;;;;4997033;28;20928;-87
2023/09/28 04:08:10;;;;;;;25.40;23.83;;;;;;;;;;4997625;28;20520;-85
2023/09/28 04:10:37;;;;;;;24.57;23.17;;;;;;;;;;4998115;28;20420;-87
2023/09/28 04:13:05;;;;;;;26.63;25.00;;;;;;;;;;4996697;28;20465;-87
2023/09/28 04:15:33;;;;;;;27.60;25.80;;;;;;;;;;4979767;28;20454;-87
2023/09/28 04:18:00;;;;;;;27.40;25.60;;;;;;;;;;4977098;28;20968;-87
2023/09/28 04:20:29;;;;;;;27.40;25.70;;;;;;;;;;4978318;28;20451;-86
2023/09/28 04:22:56;;;;;;;26.47;24.77;;;;;;;;;;4977960;28;21062;-86
2023/09/28 04:25:26;;;;;;;26.27;24.63;;;;;;;;;;4978737;28;20455;-85
2023/09/28 04:27:53;;;;;;;27.20;25.53;;;;;;;;;;4977213;28;20468;-87
2023/09/28 04:30:20;;;;;;;27.53;25.63;;;;;;;;;;4989158;28;20461;-85
2023/09/28 04:32:50;;;;;;;27.80;26.17;;;;;;;;;;4996324;28;20485;-85
2023/09/28 04:35:17;;;;;;;26.43;24.83;;;;;;;;;;4996202;28;20898;-87
2023/09/28 04:37:45;;;;;;;27.90;26.00;;;;;;;;;;4979849;28;20849;-87
2023/09/28 04:40:13;;;;;;;28.47;26.67;;;;;;;;;;4976880;28;20451;-87
2023/09/28 04:42:40;;;;;;;27.73;25.63;;;;;;;;;;4976643;28;20466;-86
2023/09/28 04:45:07;;;;;;;27.20;25.33;;;;;;;;;;4977226;28;20450;-85
2023/09/28 04:47:36;;;;;;;27.47;25.40;;;;;;;;;;4977311;28;20416;-85
2023/09/28 04:50:04;;;;;;;27.23;25.40;;;;;;;;;;4977425;28;20452;-86
2023/09/28 04:52:31;;;;;;;27.10;25.30;;;;;;;;;;4977899;28;20462;-86
2023/09/28 04:54:59;;;;;;;27.70;25.77;;;;;;;;;;4977175;28;20421;-87
2023/09/28 04:57:26;;;;;;;26.90;25.20;;;;;;;;;;4978111;28;20476;-87
2023/09/28 04:59:55;;;;;;;27.40;25.40;;;;;;;;;;4978326;28;20946;-86
2023/09/28 05:02:22;;;;;;;28.37;26.53;;;;;;;;;;4978210;28;20461;-86
2023/09/28 05:04:49;;;;;;;27.40;25.60;;;;;;;;;;4978379;28;20461;-86
2023/09/28 05:07:18;;;;;;;26.83;25.13;;;;;;;;;;4977067;28;20457;-86
2023/09/28 05:09:45;;;;;;;27.07;25.27;;;;;;;;;;4976721;28;20429;-84
2023/09/28 05:12:12;;;;;;;27.30;25.40;;;;;;;;;;4976261;28;20449;-86
2023/09/28 05:14:41;;;;;;;28.27;26.47;;;;;;;;;;4977265;28;20468;-85
2023/09/28 05:17:08;;;;;;;27.47;25.77;;;;;;;;;;4976858;28;20464;-86
2023/09/28 05:19:35;;;;;;;26.27;24.63;;;;;;;;;;4977604;28;20438;-85
2023/09/28 05:22:02;;;;;;;26.73;25.07;;;;;;;;;;4989865;28;20461;-85
2023/09/28 05:24:31;;;;;;;27.93;26.13;;;;;;;;;;4976235;28;20469;-86
2023/09/28 05:26:58;;;;;;;26.50;24.80;;;;;;;;;;4977015;28;20442;-86
2023/09/28 05:29:27;;;;;;;26.20;24.50;;;;;;;;;;4976989;28;21093;-87
2023/09/28 05:31:54;;;;;;;28.60;26.73;;;;;;;;;;4977088;28;20457;-86
2023/09/28 05:34:21;;;;;;;25.70;24.10;;;;;;;;;;4976536;28;20465;-85
2023/09/28 05:36:48;;;;;;;26.70;25.00;;;;;;;;;;4975435;28;20479;-85
2023/09/28 05:39:15;;;;;;;27.10;25.43;;;;;;;;;;4978965;28;20814;-84
2023/09/28 05:41:44;;;;;;;27.77;25.90;;;;;;;;;;4979778;28;20462;-85
2023/09/28 05:44:11;;;;;;;27.00;25.30;;;;;;;;;;4979796;28;20462;-85
2023/09/28 05:46:38;;;;;;;26.83;25.10;;;;;;;;;;4979525;28;20433;-86
2023/09/28 05:49:05;;;;;;;27.43;25.70;;;;;;;;;;4980088;28;20458;-85
2023/09/28 05:51:33;;;;;;;26.57;24.87;;;;;;;;;;4980007;28;20450;-86
2023/09/28 05:54:00;;;;;;;26.90;25.10;;;;;;;;;;4979637;28;20511;-85
2023/09/28 05:56:27;;;;;;;27.17;25.27;;;;;;;;;;4979582;28;20462;-87
2023/09/28 05:58:55;;;;;;;28.20;26.23;;;;;;;;;;4995732;28;20455;-82
2023/09/28 06:01:23;;;;;;;28.20;26.40;;;;;;;;;;4994864;28;20465;-82
2023/09/28 06:03:50;;;;;;;27.87;25.80;;;;;;;;;;4998671;28;20514;-83
2023/09/28 06:06:18;;;;;;;26.50;24.63;;;;;;;;;;4998456;28;20945;-87
2023/09/28 06:08:47;;;;;;;26.30;24.63;;;;;;;;;;4999052;28;21287;-86
2023/09/28 06:11:14;;;;;;;26.30;24.70;;;;;;;;;;4999010;28;20535;-83
2023/09/28 06:13:42;;;;;;;27.13;25.33;;;;;;;;;;4997679;28;21021;-82
2023/09/28 06:16:11;;;;;;;26.23;24.53;;;;;;;;;;4995397;28;20428;-82
2023/09/28 06:18:39;;;;;;;28.80;26.50;;;;;;;;;;4979341;28;20989;-81
2023/09/28 06:21:06;;;;;;;27.70;25.73;;;;;;;;;;4997853;28;20465;-81
2023/09/28 06:23:33;;;;;;;26.77;24.97;;;;;;;;;;4998380;28;20488;-81
2023/09/28 06:26:01;;;;;;;27.83;25.73;;;;;;;;;;4997559;28;20453;-82
2023/09/28 06:28:28;;;;;;;26.93;25.13;;;;;;;;;;4998067;28;20548;-81
2023/09/28 06:30:55;;;;;;;26.60;24.80;;;;;;;;;;4998029;28;20528;-81
2023/09/28 06:33:24;;;;;;;27.47;25.47;;;;;;;;;;4997853;28;20992;-81
2023/09/28 06:35:51;;;;;;;25.93;24.30;;;;;;;;;;4980526;28;21124;-82
2023/09/28 06:38:18;;;;;;;26.83;24.80;;;;;;;;;;4988202;28;20489;-81
2023/09/28 06:40:47;;;;;;;26.50;24.70;;;;;;;;;;4998498;28;20412;-83
2023/09/28 06:43:14;;;;;;;26.50;24.47;;;;;;;;;;4997595;28;21068;-82
2023/09/28 06:45:41;;;;;;;26.80;24.80;;;;;;;;;;4994375;28;20465;-83
2023/09/28 06:48:08;;;;;;;25.00;23.40;;;;;;;;;;4978118;28;20480;-81
2023/09/28 06:50:39;;;;;;;26.17;24.33;;;;;;;;;;4977770;28;20462;-81
2023/09/28 06:53:06;;;;;;;26.63;24.93;;;;;;;;;;4978398;28;20882;-82
2023/09/28 06:55:35;;;;;;;25.23;23.53;;;;;;;;;;4978343;28;20457;-83
2023/09/28 06:58:06;;;;;;;25.60;24.10;;;;;;;;;;4996462;28;20456;-82
2023/09/28 07:00:33;;;;;;;25.83;24.00;;;;;;;;;;4997362;28;20793;-81
2023/09/28 07:03:00;;;;;;;25.20;23.27;;;;;;;;;;4989756;28;20487;-81
2023/09/28 07:05:28;;;;;;;25.53;23.90;;;;;;;;;;4976932;28;20510;-83
2023/09/28 07:07:56;;;;;;;24.63;23.13;;;;;;;;;;4976192;28;20445;-81
2023/09/28 07:10:23;;;;;;;26.10;24.50;;;;;;;;;;4977453;28;20790;-81
2023/09/28 07:12:50;;;;;;;27.20;24.83;;;;;;;;;;4977623;28;21353;-81
2023/09/28 07:15:18;;;;;;;25.07;23.37;;;;;;;;;;4977132;28;20453;-79
2023/09/28 07:17:45;;;;;;;24.80;23.30;;;;;;;;;;4976023;28;20490;-80
2023/09/28 07:20:14;;;;;;;24.10;22.60;;;;;;;;;;4977299;28;20443;-82
2023/09/28 07:22:41;;;;;;;22.17;20.77;;;;;;;;;;4977487;28;20478;-82
2023/09/28 07:25:10;;;;;;;22.83;21.43;;;;;;;;;;4977142;28;20468;-81
2023/09/28 07:27:38;;;;;;;21.90;20.60;;;;;;;;;;4975931;28;20537;-82
2023/09/28 07:30:06;;;;;;;23.23;21.87;;;;;;;;;;4976864;28;20454;-81
2023/09/28 07:32:33;;;;;;;22.10;20.63;;;;;;;;;;4977131;28;20951;-81
2023/09/28 07:35:00;;;;;;;21.37;20.07;;;;;;;;;;4976431;28;20466;-81
2023/09/28 07:37:27;;;;;;;22.30;21.00;;;;;;;;;;4976164;28;21012;-80
2023/09/28 07:39:54;;;;;;;21.60;20.40;;;;;;;;;;4977698;28;20453;-83
2023/09/28 07:42:23;;;;;;;21.97;20.67;;;;;;;;;;4978011;28;20454;-81
2023/09/28 07:44:51;;;;;;;23.30;21.93;;;;;;;;;;4976915;28;20450;-81
2023/09/28 07:47:18;;;;;;;22.00;20.60;;;;;;;;;;4977159;28;20443;-81
2023/09/28 07:49:45;;;;;;;21.30;20.10;;;;;;;;;;4976812;28;20866;-82
2023/09/28 07:52:13;;;;;;;21.07;19.77;;;;;;;;;;4976205;28;20470;-81
2023/09/28 07:54:40;;;;;;;21.37;20.07;;;;;;;;;;4978157;28;20439;-82
2023/09/28 07:57:08;;;;;;;21.90;20.60;;;;;;;;;;4977592;28;20586;-82
2023/09/28 07:59:36;;;;;;;22.53;20.80;;;;;;;;;;4977591;28;20803;-81
2023/09/28 08:02:04;;;;;;;22.40;20.93;;;;;;;;;;4977259;28;20454;-81
2023/09/28 08:04:31;;;;;;;21.27;19.83;;;;;;;;;;4976856;28;20428;-82
2023/09/28 08:06:59;;;;;;;22.57;20.97;;;;;;;;;;4975259;28;20487;-81
2023/09/28 08:09:26;;;;;;;21.37;20.17;;;;;;;;;;4974073;28;20446;-82
2023/09/28 08:11:53;;;;;;;20.87;19.53;;;;;;;;;;4977031;28;20458;-81
2023/09/28 08:14:21;;;;;;;21.53;20.00;;;;;;;;;;4976588;28;20816;-83
2023/09/28 08:16:50;;;;;;;22.30;20.60;;;;;;;;;;4976014;28;20470;-81
2023/09/28 08:19:18;;;;;;;21.63;20.33;;;;;;;;;;4975661;28;20496;-82
2023/09/28 08:21:45;;;;;;;21.70;20.20;;;;;;;;;;4975372;28;20795;-82
2023/09/28 08:24:12;;;;;;;22.37;20.97;;;;;;;;;;4976176;28;20450;-80
2023/09/28 08:26:42;;;;;;;22.87;21.53;;;;;;;;;;4975761;28;20436;-82
2023/09/28 08:29:09;;;;;;;22.77;21.47;;;;;;;;;;4979857;28;20425;-81
2023/09/28 08:31:36;;;;;;;23.93;22.10;;;;;;;;;;4979528;28;20420;-80
2023/09/28 08:34:07;;;;;;;22.33;20.87;;;;;;;;;;4977410;28;20475;-80
2023/09/28 08:36:34;;;;;;;22.50;20.60;;;;;;;;;;4995327;28;20921;-82
2023/09/28 08:39:01;;;;;;;23.33;21.60;;;;;;;;;;4996796;28;20489;-81
2023/09/28 08:41:33;;;;;;;22.37;21.03;;;;;;;;;;4997845;28;20462;-81
2023/09/28 08:44:04;;;;;;;22.97;21.03;;;;;;;;;;4995852;28;20452;-80
2023/09/28 08:46:32;;;;;;;23.37;21.87;;;;;;;;;;4994697;28;20525;-80
2023/09/28 08:49:00;;;;;;;25.37;23.57;;;;;;;;;;4994923;28;20473;-81
2023/09/28 08:51:29;;;;;;;25.37;23.33;;;;;;;;;;4984244;28;20474;-82
2023/09/28 08:53:57;;;;;;;23.97;22.27;;;;;;;;;;4975443;28;20843;-81
2023/09/28 08:56:25;;;;;;;24.93;23.23;;;;;;;;;;4976403;28;20459;-80
2023/09/28 08:58:52;;;;;;;24.37;22.77;;;;;;;;;;4975220;28;20882;-81
2023/09/28 09:01:19;;;;;;;24.60;22.90;;;;;;;;;;4975324;28;20913;-81
2023/09/28 09:03:47;;;;;;;24.23;22.43;;;;;;;;;;4975637;28;20456;-83
2023/09/28 09:06:15;;;;;;;24.80;23.00;;;;;;;;;;4976054;28;20465;-81
2023/09/28 09:08:48;;;;;;;24.33;22.77;;;;;;;;;;4985948;28;20536;-81
2023/09/28 09:11:16;;;;;;;23.33;21.73;;;;;;;;;;4994616;28;20424;-82
2023/09/28 09:13:50;;;;;;;23.97;22.50;;;;;;;;;;4997440;28;20966;-81
2023/09/28 09:16:18;;;;;;;24.93;23.10;;;;;;;;;;4998811;28;20440;-81
2023/09/28 09:18:45;;;;;;;24.30;22.70;;;;;;;;;;4998752;28;21292;-83
2023/09/28 09:21:12;;;;;;;24.87;22.60;;;;;;;;;;5000752;28;20455;-84
2023/09/28 09:23:39;;;;;;;25.07;23.03;;;;;;;;;;5001182;28;20436;-82
2023/09/28 09:26:16;;;;;;;24.50;22.80;;;;;;;;;;4999065;28;20460;-82
2023/09/28 09:28:44;;;;;;;23.90;22.30;;;;;;;;;;5002126;28;20453;-84
2023/09/28 09:31:13;;;;;;;25.97;24.20;;;;;;;;;;5005012;28;20457;-84
2023/09/28 09:33:40;;;;;;;24.70;23.20;;;;;;;;;;5002002;28;20473;-86
2023/09/28 09:36:07;;;;;;;25.13;23.43;;;;;;;;;;4997090;28;20439;-77
2023/09/28 09:38:34;;;;;;;25.67;23.93;;;;;;;;;;4998526;28;20565;-77
2023/09/28 09:41:04;;;;;;;25.93;24.33;;;;;;;;;;4995299;28;21155;-77
2023/09/28 09:43:34;;;;;;;25.80;24.07;;;;;;;;;;4995443;28;20484;-76
2023/09/28 09:46:04;;;;;;;25.67;23.50;;;;;;;;;;4997114;28;20473;-86
2023/09/28 09:48:32;;;;;;;25.37;23.60;;;;;;;;;;4999284;28;20475;-78
2023/09/28 09:51:00;;;;;;;25.00;23.23;;;;;;;;;;4996816;28;20459;-81
2023/09/28 09:53:27;;;;;;;25.97;24.03;;;;;;;;;;4999619;28;20473;-81
2023/09/28 09:55:57;;;;;;;25.23;23.53;;;;;;;;;;5000519;28;20464;-86
2023/09/28 09:58:29;;;;;;;25.87;23.87;;;;;;;;;;5003026;28;20485;-84
2023/09/28 10:01:00;;;;;;;26.17;24.20;;;;;;;;;;5000297;28;20477;-84
2023/09/28 10:03:28;;;;;;;24.87;23.17;;;;;;;;;;4994493;28;20570;-85
2023/09/28 10:05:56;;;;;;;24.27;22.67;;;;;;;;;;4990598;28;20450;-86
2023/09/28 10:08:23;;;;;;;24.73;23.13;;;;;;;;;;4993842;28;20460;-86
2023/09/28 10:10:51;;;;;;;24.50;22.70;;;;;;;;;;4998661;28;20461;-84
2023/09/28 10:13:18;;;;;;;25.53;23.83;;;;;;;;;;4997919;28;20492;-80
2023/09/28 10:15:46;;;;;;;26.73;24.57;;;;;;;;;;4998507;28;20453;-83
2023/09/28 10:18:15;;;;;;;25.53;23.63;;;;;;;;;;4997340;28;20460;-83
2023/09/28 10:20:42;;;;;;;26.53;24.73;;;;;;;;;;4999293;28;20446;-86
2023/09/28 10:23:13;;;;;;;25.37;23.67;;;;;;;;;;4999566;28;20552;-91
2023/09/28 10:25:54;;;;;;;25.67;23.97;;;;;;;;;;4998779;28;20482;-90
2023/09/28 10:28:21;;;;;;;24.53;22.97;;;;;;;;;;4997991;28;20464;-87
2023/09/28 10:30:49;;;;;;;26.00;24.10;;;;;;;;;;4986156;28;20449;-91
2023/09/28 10:33:18;;;;;;;26.37;24.80;;;;;;;;;;4999246;28;20886;-92
2023/09/28 10:35:46;;;;;;;26.77;24.37;;;;;;;;;;4998703;28;20523;-92
2023/09/28 10:38:31;;;;;;;26.10;24.40;;;;;;;;;;4998973;28;20481;-91
2023/09/28 10:41:06;;;;;;;27.13;25.03;;;;;;;;;;5000565;28;20446;-90
2023/09/28 10:43:34;;;;;;;24.50;22.80;;;;;;;;;;4998296;28;20427;-92
2023/09/28 10:46:03;;;;;;;26.60;24.23;;;;;;;;;;4996536;28;20921;-90
2023/09/28 10:48:39;;;;;;;24.97;23.17;;;;;;;;;;4995621;28;20449;-90
2023/09/28 10:51:09;;;;;;;24.27;22.60;;;;;;;;;;4997395;28;20422;-91
2023/09/28 10:53:37;;;;;;;24.30;22.70;;;;;;;;;;4998153;28;20467;-90
2023/09/28 10:56:05;;;;;;;24.40;22.57;;;;;;;;;;4996992;28;20472;-90
2023/09/28 10:58:33;;;;;;;23.73;21.93;;;;;;;;;;4996702;28;20476;-89
2023/09/28 11:01:04;;;;;;;24.17;22.50;;;;;;;;;;4993331;28;20490;-89
2023/09/28 11:03:33;;;;;;;23.20;21.80;;;;;;;;;;4990275;28;20522;-91
2023/09/28 11:06:01;;;;;;;24.77;23.07;;;;;;;;;;4994120;28;20465;-90
2023/09/28 11:08:28;;;;;;;25.57;23.97;;;;;;;;;;4996996;28;20461;-89
2023/09/28 11:10:58;;;;;;;26.17;24.13;;;;;;;;;;4997443;28;20935;-90
2023/09/28 11:13:25;;;;;;;24.30;22.70;;;;;;;;;;4997659;28;20488;-89
2023/09/28 11:15:53;;;;;;;23.97;22.27;;;;;;;;;;4998239;28;20488;-84
2023/09/28 11:18:20;;;;;;;25.30;23.53;;;;;;;;;;4999885;28;20485;-86
2023/09/28 11:20:49;;;;;;;24.20;22.60;;;;;;;;;;5004223;28;20441;-84
2023/09/28 11:23:16;;;;;;;24.87;23.20;;;;;;;;;;5000883;28;20469;-83
2023/09/28 11:25:43;;;;;;;24.07;22.40;;;;;;;;;;4997098;28;20449;-83
2023/09/28 11:28:11;;;;;;;25.60;23.80;;;;;;;;;;4996186;28;20445;-84
2023/09/28 11:30:38;;;;;;;23.60;22.00;;;;;;;;;;4995806;28;20972;-79
2023/09/28 11:33:07;;;;;;;23.70;22.10;;;;;;;;;;4998342;28;20460;-92
2023/09/28 11:35:35;;;;;;;23.90;22.30;;;;;;;;;;5012011;28;20483;-83
2023/09/28 11:38:10;;;;;;;23.67;22.03;;;;;;;;;;5018176;28;20921;-91
2023/09/28 11:40:37;;;;;;;24.00;22.00;;;;;;;;;;5018572;28;20442;-91
2023/09/28 11:43:05;;;;;;;23.60;21.80;;;;;;;;;;5017700;28;20563;-91
2023/09/28 11:45:33;;;;;;;23.50;21.77;;;;;;;;;;5018244;28;20460;-91
2023/09/28 11:48:04;;;;;;;25.17;22.97;;;;;;;;;;5018713;28;20518;-90
2023/09/28 11:50:33;;;;;;;26.27;24.13;;;;;;;;;;5018014;28;20800;-90
2023/09/28 11:53:03;;;;;;;24.53;22.77;;;;;;;;;;5017967;28;21117;-90
2023/09/28 11:55:32;;;;;;;24.07;22.47;;;;;;;;;;5018568;28;20522;-92
2023/09/28 11:58:01;;;;;;;23.87;22.37;;;;;;;;;;5017962;28;20438;-92
2023/09/28 12:00:28;;;;;;;24.93;23.30;;;;;;;;;;5017777;28;20488;-92
2023/09/28 12:02:55;;;;;;;25.67;23.97;;;;;;;;;;5018876;28;20510;-91
2023/09/28 12:05:22;;;;;;;25.33;23.43;;;;;;;;;;5019627;28;20900;-93
2023/09/28 12:07:50;;;;;;;26.60;24.60;;;;;;;;;;5018401;28;20456;-91
2023/09/28 12:10:19;;;;;;;25.63;24.03;;;;;;;;;;5019089;28;20785;-94
2023/09/28 12:12:47;;;;;;;24.97;22.93;;;;;;;;;;5018558;28;20479;-92
2023/09/28 12:15:14;;;;;;;24.97;23.17;;;;;;;;;;5018459;28;20479;-92
2023/09/28 12:17:42;;;;;;;27.27;24.97;;;;;;;;;;5018210;28;20539;-92
2023/09/28 12:20:12;;;;;;;26.90;25.10;;;;;;;;;;5017545;28;20481;-91
2023/09/28 12:22:40;;;;;;;27.57;25.87;;;;;;;;;;5017034;28;20464;-91
2023/09/28 12:25:08;;;;;;;28.07;26.10;;;;;;;;;;5016554;28;20452;-90
2023/09/28 12:27:36;;;;;;;28.97;26.70;;;;;;;;;;5016742;28;21024;-91
2023/09/28 12:30:06;;;;;;;30.07;27.47;;;;;;;;;;5013874;28;20793;-91
2023/09/28 12:32:34;;;;;;;29.23;27.23;;;;;;;;;;4999004;28;20469;-90
2023/09/28 12:35:02;;;;;;;29.23;27.20;;;;;;;;;;4999176;28;20469;-91
2023/09/28 12:37:32;;;;;;;28.30;26.40;;;;;;;;;;4997978;28;20461;-91
2023/09/28 12:40:00;;;;;;;30.70;28.53;;;;;;;;;;4996996;28;20539;-91
2023/09/28 12:42:27;;;;;;;29.87;27.90;;;;;;;;;;4997927;28;20997;-91
2023/09/28 12:44:58;;;;;;;29.37;27.47;;;;;;;;;;4997466;28;20532;-91
2023/09/28 12:47:27;;;;;;;29.87;27.87;;;;;;;;;;4996486;28;20876;-91
2023/09/28 12:49:54;;;;;;;31.70;29.53;;;;;;;;;;4996004;28;20500;-92
2023/09/28 12:52:21;;;;;;;29.47;27.67;;;;;;;;;;4991098;28;20535;-91
2023/09/28 12:54:49;;;;;;;30.93;28.47;;;;;;;;;;4996624;28;20453;-91
2023/09/28 12:57:16;;;;;;;32.10;29.73;;;;;;;;;;4996202;28;20797;-87
2023/09/28 12:59:47;;;;;;;31.07;28.73;;;;;;;;;;4996028;28;20512;-82
2023/09/28 13:02:14;;;;;;;30.23;28.00;;;;;;;;;;4994677;28;20763;-82
2023/09/28 13:04:43;;;;;;;28.97;26.57;;;;;;;;;;4994783;28;20512;-82
2023/09/28 13:07:10;;;;;;;30.20;28.20;;;;;;;;;;4994403;28;20436;-83
2023/09/28 13:09:37;;;;;;;29.40;27.50;;;;;;;;;;4994776;28;20448;-82
2023/09/28 13:12:05;;;;;;;28.43;26.43;;;;;;;;;;4992604;28;20451;-82
2023/09/28 13:14:34;;;;;;;30.07;27.80;;;;;;;;;;4984678;28;20458;-81
2023/09/28 13:17:02;;;;;;;29.43;27.07;;;;;;;;;;4988207;28;20931;-81
2023/09/28 13:19:30;;;;;;;28.40;26.50;;;;;;;;;;4992809;28;20496;-81
2023/09/28 13:21:59;;;;;;;29.63;27.20;;;;;;;;;;4986575;28;20465;-82
2023/09/28 13:24:26;;;;;;;28.37;26.57;;;;;;;;;;4988766;28;20552;-82
2023/09/28 13:27:00;;;;;;;29.90;27.90;;;;;;;;;;4993056;28;20916;-81
2023/09/28 13:29:27;;;;;;;27.23;25.23;;;;;;;;;;4994481;28;20446;-82
2023/09/28 13:31:55;;;;;;;28.53;26.63;;;;;;;;;;4993334;28;20468;-83
2023/09/28 13:34:23;;;;;;;27.93;26.30;;;;;;;;;;5005595;28;20469;-82
2023/09/28 13:36:53;;;;;;;26.97;25.23;;;;;;;;;;4989614;28;20450;-81
2023/09/28 13:39:27;;;;;;;28.20;26.40;;;;;;;;;;5005742;28;20485;-79
2023/09/28 13:41:57;;;;;;;27.47;25.67;;;;;;;;;;5009018;28;20513;-80
2023/09/28 13:44:24;;;;;;;28.00;25.90;;;;;;;;;;5000585;28;20477;-81
2023/09/28 13:46:53;;;;;;;27.77;25.63;;;;;;;;;;5004913;28;20461;-81
2023/09/28 13:49:20;;;;;;;27.47;25.77;;;;;;;;;;5007487;28;20472;-82
2023/09/28 13:54:15;;;;;;;28.70;26.33;;;;;;;;;;5018784;23;20520;-90
2023/09/28 13:56:44;;;;;;;29.03;27.03;;;;;;;;;;5012034;28;20496;-91
2023/09/28 13:59:12;;;;;;;28.90;27.07;;;;;;;;;;5012318;28;20485;-90
2023/09/28 14:01:43;;;;;;;27.47;25.57;;;;;;;;;;5015725;28;20500;-90
2023/09/28 14:04:14;;;;;;;27.90;26.10;;;;;;;;;;4995791;28;20482;-90
2023/09/28 14:06:42;;;;;;;27.00;25.20;;;;;;;;;;4995818;28;20493;-91
2023/09/28 14:09:11;;;;;;;26.37;24.57;;;;;;;;;;4997047;28;20481;-87
2023/09/28 14:11:39;;;;;;;27.43;25.30;;;;;;;;;;4996771;28;20439;-91
2023/09/28 14:14:10;;;;;;;27.20;25.20;;;;;;;;;;4997348;28;20578;-92
2023/09/28 14:16:38;;;;;;;26.30;24.50;;;;;;;;;;4997546;28;20472;-92
2023/09/28 14:19:06;;;;;;;25.80;24.30;;;;;;;;;;4997337;28;20461;-91
2023/09/28 14:21:35;;;;;;;27.77;25.50;;;;;;;;;;4996223;28;20421;-82
2023/09/28 14:24:05;;;;;;;26.20;24.50;;;;;;;;;;4995721;28;20473;-91